createdAt,value
2022-11-28T00:01:27.210Z,1.90
2022-11-28T00:03:53.830Z,2.17
2022-11-28T00:06:21.042Z,1.70
2022-11-28T00:08:48.546Z,1.60
2022-11-28T00:11:16.781Z,1.80
2022-11-28T00:13:43.755Z,2.30
2022-11-28T00:16:15.955Z,1.92
2022-11-28T00:18:42.780Z,1.90
2022-11-28T00:21:12.287Z,1.70
2022-11-28T00:23:39.428Z,1.88
2022-11-28T00:26:21.453Z,1.85
2022-11-28T00:28:48.335Z,1.80
2022-11-28T00:31:21.176Z,1.80
2022-11-28T00:33:48.179Z,1.92
2022-11-28T00:36:15.301Z,1.80
2022-11-28T00:38:42.469Z,1.70
2022-11-28T00:41:14.616Z,1.55
2022-11-28T00:43:42.614Z,1.60
2022-11-28T00:46:09.728Z,1.60
2022-11-28T00:48:36.838Z,1.70
2022-11-28T00:51:09.102Z,1.80
2022-11-28T00:53:37.100Z,1.70
2022-11-28T00:56:07.550Z,1.40
2022-11-28T00:58:35.701Z,1.70
2022-11-28T01:01:11.786Z,1.48
2022-11-28T01:03:39.103Z,1.70
2022-11-28T01:06:07.309Z,1.60
2022-11-28T01:08:34.094Z,1.50
2022-11-28T01:11:00.716Z,1.75
2022-11-28T01:13:28.307Z,1.75
2022-11-28T01:15:54.949Z,1.50
2022-11-28T01:18:22.668Z,1.50
2022-11-28T01:20:49.110Z,1.17
2022-11-28T01:23:16.921Z,1.40
2022-11-28T01:25:43.354Z,1.20
2022-11-28T01:28:09.805Z,1.63
2022-11-28T01:30:36.353Z,1.70
2022-11-28T01:33:02.894Z,1.70
2022-11-28T01:35:29.385Z,1.55
2022-11-28T01:37:55.845Z,1.42
2022-11-28T01:40:22.630Z,1.55
2022-11-28T01:42:49.156Z,1.52
2022-11-28T01:45:45.177Z,1.50
2022-11-28T01:48:15.447Z,1.27
2022-11-28T01:50:46.146Z,1.50
2022-11-28T01:56:12.654Z,1.27
2022-11-28T01:58:43.557Z,1.30
2022-11-28T02:01:11.230Z,1.67
2022-11-28T02:03:44.961Z,1.60
2022-11-28T02:06:15.237Z,1.33
2022-11-28T02:08:42.034Z,1.20
2022-11-28T02:11:21.692Z,1.50
2022-11-28T02:14:09.903Z,1.25
2022-11-28T02:16:54.357Z,1.33
2022-11-28T02:19:42.228Z,1.42
2022-11-28T02:22:27.384Z,1.17
2022-11-28T02:25:48.194Z,1.27
2022-11-28T02:28:52.174Z,1.15
2022-11-28T02:31:36.998Z,1.05
2022-11-28T02:34:12.207Z,1.10
2022-11-28T02:36:51.531Z,1.30
2022-11-28T02:39:31.571Z,1.20
2022-11-28T02:42:13.881Z,1.30
2022-11-28T02:44:57.683Z,1.40
2022-11-28T02:47:37.922Z,1.20
2022-11-28T02:50:07.594Z,1.10
2022-11-28T02:52:39.278Z,1.40
2022-11-28T02:55:07.579Z,1.40
2022-11-28T02:57:42.737Z,1.10
2022-11-28T03:00:31.752Z,1.15
2022-11-28T03:03:15.573Z,1.40
2022-11-28T03:06:18.762Z,1.20
2022-11-28T03:09:14.703Z,1.10
2022-11-28T03:11:47.478Z,1.15
2022-11-28T03:14:40.884Z,1.20
2022-11-28T03:17:18.850Z,1.30
2022-11-28T03:20:16.944Z,1.00
2022-11-28T03:22:55.351Z,1.13
2022-11-28T03:25:40.120Z,1.00
2022-11-28T03:28:12.360Z,1.05
2022-11-28T03:30:53.741Z,1.10
2022-11-28T03:33:23.496Z,1.30
2022-11-28T03:35:58.631Z,1.20
2022-11-28T03:38:35.703Z,1.10
2022-11-28T03:41:08.227Z,1.10
2022-11-28T03:43:42.204Z,1.30
2022-11-28T03:46:13.870Z,0.93
2022-11-28T03:48:45.706Z,1.08
2022-11-28T03:51:16.874Z,1.33
2022-11-28T03:54:08.882Z,1.10
2022-11-28T03:56:41.341Z,1.10
2022-11-28T03:59:18.172Z,1.10
2022-11-28T04:01:56.667Z,1.00
2022-11-28T04:04:37.070Z,1.10
2022-11-28T04:07:21.965Z,1.05
2022-11-28T04:09:57.015Z,1.20
2022-11-28T04:12:43.550Z,0.98
2022-11-28T04:15:17.605Z,1.00
2022-11-28T04:17:58.920Z,1.00
2022-11-28T04:20:46.844Z,0.90
2022-11-28T04:23:17.101Z,1.33
2022-11-28T04:25:51.707Z,1.02
2022-11-28T04:28:23.876Z,1.05
2022-11-28T04:30:52.889Z,1.10
2022-11-28T04:33:23.215Z,1.15
2022-11-28T04:35:52.908Z,1.35
2022-11-28T04:38:22.885Z,1.13
2022-11-28T04:41:15.107Z,1.20
2022-11-28T04:43:48.122Z,1.30
2022-11-28T04:46:32.687Z,1.00
2022-11-28T04:48:59.479Z,1.10
2022-11-28T04:51:39.549Z,1.00
2022-11-28T04:54:17.813Z,1.15
2022-11-28T04:56:54.282Z,1.20
2022-11-28T04:59:23.045Z,1.05
2022-11-28T05:01:50.307Z,1.30
2022-11-28T05:04:17.697Z,1.25
2022-11-28T05:06:44.547Z,1.17
2022-11-28T05:09:12.353Z,1.25
2022-11-28T05:11:39.474Z,1.27
2022-11-28T05:14:06.290Z,1.40
2022-11-28T05:16:32.879Z,1.17
2022-11-28T05:18:59.405Z,1.45
2022-11-28T05:21:25.887Z,1.25
2022-11-28T05:23:52.377Z,1.40
2022-11-28T05:26:20.983Z,1.60
2022-11-28T05:28:50.846Z,1.20
2022-11-28T05:31:19.930Z,1.50
2022-11-28T05:33:46.647Z,1.40
2022-11-28T05:36:14.937Z,1.48
2022-11-28T05:38:42.541Z,1.52
2022-11-28T05:41:17.745Z,1.50
2022-11-28T05:43:44.275Z,1.52
2022-11-28T05:46:10.774Z,1.30
2022-11-28T05:48:37.253Z,1.48
2022-11-28T05:51:05.284Z,1.55
2022-11-28T05:53:31.904Z,1.73
2022-11-28T05:55:58.637Z,1.75
2022-11-28T05:58:25.244Z,1.80
2022-11-28T06:00:51.704Z,1.70
2022-11-28T06:03:18.183Z,1.63
2022-11-28T06:05:44.863Z,2.10
2022-11-28T06:08:12.320Z,1.70
2022-11-28T06:10:38.907Z,1.65
2022-11-28T06:13:05.891Z,1.48
2022-11-28T06:15:37.531Z,1.85
2022-11-28T06:18:05.029Z,1.83
2022-11-28T06:20:31.552Z,1.70
2022-11-28T06:22:58.058Z,1.95
2022-11-28T06:25:24.544Z,1.80
2022-11-28T06:27:51.011Z,1.98
2022-11-28T06:30:17.605Z,2.05
2022-11-28T06:32:44.086Z,1.90
2022-11-28T06:35:10.615Z,1.90
2022-11-28T06:37:37.348Z,1.90
2022-11-28T06:40:05.198Z,2.35
2022-11-28T06:42:31.693Z,2.00
2022-11-28T06:44:58.235Z,2.15
2022-11-28T06:47:24.802Z,1.90
2022-11-28T06:49:51.237Z,1.83
2022-11-28T06:52:17.727Z,1.85
2022-11-28T06:54:44.701Z,2.00
2022-11-28T06:57:11.425Z,2.20
2022-11-28T06:59:38.178Z,2.10
2022-11-28T07:02:07.943Z,2.22
2022-11-28T07:04:34.789Z,2.45
2022-11-28T07:07:01.595Z,2.55
2022-11-28T07:09:28.344Z,2.22
2022-11-28T07:11:55.274Z,2.10
2022-11-28T07:14:21.840Z,2.20
2022-11-28T07:16:49.241Z,1.98
2022-11-28T07:19:16.161Z,2.20
2022-11-28T07:21:42.780Z,2.15
2022-11-28T07:24:09.322Z,2.53
2022-11-28T07:26:37.971Z,2.63
2022-11-28T07:29:06.919Z,2.10
2022-11-28T07:31:33.844Z,2.78
2022-11-28T07:34:03.593Z,2.33
2022-11-28T07:36:30.551Z,2.50
2022-11-28T07:39:00.302Z,2.58
2022-11-28T07:41:30.223Z,2.55
2022-11-28T07:43:59.312Z,2.80
2022-11-28T07:46:27.292Z,2.40
2022-11-28T07:48:53.917Z,2.58
2022-11-28T07:51:23.536Z,2.80
2022-11-28T07:53:50.278Z,2.78
2022-11-28T07:56:20.496Z,2.55
2022-11-28T07:58:47.679Z,2.90
2022-11-28T08:01:16.963Z,2.78
2022-11-28T08:03:47.265Z,2.55
2022-11-28T08:06:15.476Z,3.03
2022-11-28T08:08:42.386Z,2.83
2022-11-28T08:11:10.495Z,2.88
2022-11-28T08:13:38.752Z,2.70
2022-11-28T08:16:09.370Z,3.20
2022-11-28T08:18:36.132Z,2.65
2022-11-28T08:21:14.617Z,3.03
2022-11-28T08:23:42.244Z,3.40
2022-11-28T08:26:11.081Z,2.97
2022-11-28T08:28:37.590Z,3.33
2022-11-28T08:31:34.545Z,3.38
2022-11-28T08:34:03.374Z,3.40
2022-11-28T08:36:30.018Z,3.05
2022-11-28T08:39:16.590Z,3.22
2022-11-28T08:41:43.515Z,3.30
2022-11-28T08:44:09.958Z,3.20
2022-11-28T08:46:36.741Z,3.72
2022-11-28T08:49:04.800Z,3.53
2022-11-28T08:51:31.856Z,2.75
2022-11-28T08:53:59.740Z,3.10
2022-11-28T08:56:26.759Z,3.10
2022-11-28T08:58:53.642Z,3.40
2022-11-28T09:01:22.760Z,3.90
2022-11-28T09:03:50.350Z,3.22
2022-11-28T09:06:18.195Z,3.30
2022-11-28T09:08:45.215Z,3.72
2022-11-28T09:11:15.172Z,3.50
2022-11-28T09:13:41.884Z,3.08
2022-11-28T09:16:09.142Z,3.33
2022-11-28T09:18:36.517Z,3.60
2022-11-28T09:21:09.823Z,3.40
2022-11-28T09:23:37.323Z,3.67
2022-11-28T09:26:30.079Z,3.22
2022-11-28T09:28:56.534Z,3.30
2022-11-28T09:31:23.205Z,3.42
2022-11-28T09:33:49.830Z,3.42
2022-11-28T09:36:22.143Z,3.80
2022-11-28T09:38:49.214Z,3.40
2022-11-28T09:41:43.335Z,3.63
2022-11-28T09:44:49.378Z,3.63
2022-11-28T09:47:25.717Z,3.78
2022-11-28T09:49:59.772Z,3.30
2022-11-28T09:53:08.493Z,3.35
2022-11-28T09:55:40.381Z,3.50
2022-11-28T09:58:24.633Z,3.78
2022-11-28T10:00:59.635Z,3.30
2022-11-28T10:03:32.860Z,3.80
2022-11-28T10:06:14.675Z,3.42
2022-11-28T10:09:06.998Z,3.33
2022-11-28T10:11:51.629Z,3.58
2022-11-28T10:14:36.693Z,3.38
2022-11-28T10:17:23.420Z,3.20
2022-11-28T10:20:00.597Z,3.65
2022-11-28T10:22:48.517Z,3.72
2022-11-28T10:25:22.302Z,3.47
2022-11-28T10:27:50.368Z,3.55
2022-11-28T10:30:24.799Z,3.42
2022-11-28T10:33:07.040Z,3.75
2022-11-28T10:35:47.595Z,3.35
2022-11-28T10:38:16.487Z,3.55
2022-11-28T10:40:59.671Z,3.40
2022-11-28T10:44:01.782Z,3.55
2022-11-28T10:46:39.947Z,3.17
2022-11-28T10:49:46.106Z,3.22
2022-11-28T10:52:26.290Z,3.42
2022-11-28T10:55:00.413Z,3.20
2022-11-28T10:57:49.887Z,3.50
2022-11-28T11:00:18.890Z,3.28
2022-11-28T11:02:56.398Z,3.60
2022-11-28T11:05:28.890Z,3.28
2022-11-28T11:07:58.540Z,3.30
2022-11-28T11:10:51.538Z,3.38
2022-11-28T11:13:23.586Z,3.35
2022-11-28T11:15:58.655Z,3.17
2022-11-28T11:18:27.946Z,3.40
2022-11-28T11:21:21.786Z,3.38
2022-11-28T11:23:50.121Z,3.78
2022-11-28T11:26:24.954Z,3.33
2022-11-28T11:28:52.292Z,3.60
2022-11-28T11:31:22.327Z,3.38
2022-11-28T11:34:06.828Z,3.15
2022-11-28T11:36:37.588Z,3.20
2022-11-28T11:41:33.020Z,3.28
2022-11-28T11:44:25.559Z,3.75
2022-11-28T11:46:58.094Z,3.05
2022-11-28T11:49:41.512Z,3.10
2022-11-28T11:52:27.311Z,3.35
2022-11-28T11:54:56.806Z,3.42
2022-11-28T11:57:33.940Z,3.30
2022-11-28T12:00:07.194Z,3.17
2022-11-28T12:03:00.877Z,3.00
2022-11-28T12:05:52.309Z,3.20
2022-11-28T12:08:44.450Z,2.92
2022-11-28T12:11:14.710Z,3.22
2022-11-28T12:13:42.397Z,2.67
2022-11-28T12:16:34.005Z,3.03
2022-11-28T12:19:36.666Z,2.90
2022-11-28T12:22:27.419Z,3.10
2022-11-28T12:24:56.731Z,2.80
2022-11-28T12:27:47.104Z,2.83
2022-11-28T12:30:58.757Z,2.90
2022-11-28T12:33:25.232Z,2.90
2022-11-28T12:36:10.944Z,2.92
2022-11-28T12:38:46.497Z,2.85
2022-11-28T12:41:40.402Z,2.65
2022-11-28T12:44:30.918Z,3.20
2022-11-28T12:47:10.801Z,2.80
2022-11-28T12:50:08.247Z,3.07
2022-11-28T12:52:49.952Z,3.10
2022-11-28T12:55:34.227Z,2.85
2022-11-28T12:58:11.786Z,2.97
2022-11-28T13:01:17.771Z,2.97
2022-11-28T13:04:04.536Z,3.10
2022-11-28T13:06:57.093Z,2.95
2022-11-28T13:09:29.614Z,2.58
2022-11-28T13:12:19.576Z,2.90
2022-11-28T13:14:46.382Z,2.87
2022-11-28T13:17:19.045Z,2.67
2022-11-28T13:19:48.470Z,2.70
2022-11-28T13:22:30.483Z,2.55
2022-11-28T13:25:19.797Z,2.92
2022-11-28T13:27:56.761Z,2.50
2022-11-28T13:30:28.650Z,2.80
2022-11-28T13:33:25.045Z,3.05
2022-11-28T13:35:52.408Z,2.40
2022-11-28T13:38:36.155Z,2.53
2022-11-28T13:41:43.113Z,2.75
2022-11-28T13:44:15.622Z,2.60
2022-11-28T13:46:46.376Z,2.53
2022-11-28T13:51:48.130Z,2.50
2022-11-28T13:54:17.924Z,2.63
2022-11-28T13:57:04.871Z,2.58
2022-11-28T13:59:33.017Z,2.50
2022-11-28T14:02:16.981Z,2.50
2022-11-28T14:04:44.837Z,2.42
2022-11-28T14:07:26.423Z,2.28
2022-11-28T14:10:08.156Z,2.63
2022-11-28T14:13:23.239Z,2.40
2022-11-28T14:16:04.793Z,2.53
2022-11-28T14:18:57.979Z,2.50
2022-11-28T14:21:43.055Z,2.47
2022-11-28T14:24:16.315Z,2.33
2022-11-28T14:26:44.475Z,2.47
2022-11-28T14:29:24.490Z,2.33
2022-11-28T14:32:21.647Z,2.55
2022-11-28T14:34:46.592Z,2.25
2022-11-28T14:37:19.431Z,2.25
2022-11-28T14:39:50.110Z,2.70
2022-11-28T14:45:44.762Z,2.40
2022-11-28T14:48:23.476Z,2.30
2022-11-28T14:50:59.354Z,2.30
2022-11-28T14:53:33.799Z,2.08
2022-11-28T14:56:29.506Z,2.42
2022-11-28T14:58:58.831Z,2.15
2022-11-28T15:01:40.780Z,2.53
2022-11-28T15:04:28.998Z,2.38
2022-11-28T15:06:55.920Z,2.20
2022-11-28T15:09:44.535Z,2.63
2022-11-28T15:12:24.061Z,2.05
2022-11-28T15:14:55.977Z,2.08
2022-11-28T15:17:32.477Z,2.30
2022-11-28T15:20:09.034Z,2.25
2022-11-28T15:22:42.444Z,2.40
2022-11-28T15:25:25.741Z,2.38
2022-11-28T15:27:53.709Z,2.58
2022-11-28T15:30:26.856Z,2.05
2022-11-28T15:32:59.761Z,2.03
2022-11-28T15:35:27.700Z,1.80
2022-11-28T15:37:56.609Z,2.10
2022-11-28T15:40:34.257Z,1.95
2022-11-28T15:43:01.813Z,2.28
2022-11-28T15:45:30.892Z,2.45
2022-11-28T15:47:57.851Z,2.15
2022-11-28T15:50:28.273Z,2.58
2022-11-28T15:53:15.526Z,2.40
2022-11-28T15:55:42.211Z,2.60
2022-11-28T15:58:17.726Z,2.10
2022-11-28T16:00:48.980Z,2.50
2022-11-28T16:03:22.776Z,2.30
2022-11-28T16:05:51.882Z,2.17
2022-11-28T16:08:26.675Z,2.35
2022-11-28T16:10:53.305Z,2.63
2022-11-28T16:13:21.753Z,2.58
2022-11-28T16:15:50.473Z,2.20
2022-11-28T16:18:17.507Z,2.38
2022-11-28T16:20:44.214Z,2.88
2022-11-28T16:23:19.580Z,2.45
2022-11-28T16:25:58.023Z,2.50
2022-11-28T16:28:35.376Z,2.63
2022-11-28T16:31:02.666Z,2.60
2022-11-28T16:33:43.715Z,2.50
2022-11-28T16:36:47.891Z,2.55
2022-11-28T16:39:17.838Z,2.45
2022-11-28T16:41:54.783Z,2.75
2022-11-28T16:44:23.860Z,3.17
2022-11-28T16:46:58.065Z,2.80
2022-11-28T16:49:38.120Z,2.80
2022-11-28T16:52:24.014Z,3.05
2022-11-28T16:54:51.775Z,2.80
2022-11-28T16:57:20.247Z,2.92
2022-11-28T16:59:48.104Z,2.88
2022-11-28T17:02:20.721Z,3.20
2022-11-28T17:04:48.838Z,3.38
2022-11-28T17:07:19.148Z,3.53
2022-11-28T17:09:47.281Z,3.25
2022-11-28T17:12:25.173Z,3.50
2022-11-28T17:14:52.263Z,3.35
2022-11-28T17:17:20.489Z,3.42
2022-11-28T17:19:47.219Z,3.42
2022-11-28T17:22:20.930Z,3.20
2022-11-28T17:24:49.597Z,3.20
2022-11-28T17:27:16.494Z,3.65
2022-11-28T17:29:43.527Z,3.30
2022-11-28T17:32:14.158Z,3.22
2022-11-28T17:34:42.294Z,3.35
2022-11-28T17:37:09.738Z,3.25
2022-11-28T17:39:36.286Z,3.65
2022-11-28T17:42:02.849Z,3.40
2022-11-28T17:44:32.066Z,3.60
2022-11-28T17:47:00.604Z,3.78
2022-11-28T17:49:27.793Z,3.50
2022-11-28T17:51:56.031Z,3.83
2022-11-28T17:54:24.547Z,3.22
2022-11-28T17:56:52.843Z,3.13
2022-11-28T17:59:21.478Z,3.95
2022-11-28T18:01:48.471Z,3.40
2022-11-28T18:04:15.439Z,3.63
2022-11-28T18:06:46.517Z,3.35
2022-11-28T18:09:13.929Z,3.55
2022-11-28T18:11:41.676Z,3.20
2022-11-28T18:14:09.083Z,3.45
2022-11-28T18:16:36.311Z,3.67
2022-11-28T18:19:03.730Z,3.20
2022-11-28T18:21:30.393Z,4.32
2022-11-28T18:23:58.141Z,3.72
2022-11-28T18:26:26.125Z,4.30
2022-11-28T18:28:53.934Z,3.53
2022-11-28T18:31:24.259Z,3.63
2022-11-28T18:33:51.304Z,3.20
2022-11-28T18:36:23.471Z,3.30
2022-11-28T18:38:54.274Z,4.22
2022-11-28T18:41:20.869Z,3.85
2022-11-28T18:43:47.406Z,3.58
2022-11-28T18:46:16.556Z,3.80
2022-11-28T18:48:46.152Z,3.70
2022-11-28T18:51:13.139Z,3.83
2022-11-28T18:53:40.526Z,3.78
2022-11-28T18:56:07.790Z,3.55
2022-11-28T18:58:36.500Z,3.72
2022-11-28T19:01:20.879Z,3.58
2022-11-28T19:03:52.647Z,3.63
2022-11-28T19:06:20.025Z,3.53
2022-11-28T19:08:47.116Z,3.70
2022-11-28T19:11:16.598Z,4.10
2022-11-28T19:13:45.634Z,3.45
2022-11-28T19:16:17.913Z,3.90
2022-11-28T19:18:44.761Z,3.80
2022-11-28T19:21:13.956Z,3.20
2022-11-28T19:23:40.984Z,4.10
2022-11-28T19:26:10.575Z,3.88
2022-11-28T19:28:38.985Z,4.40
2022-11-28T19:31:06.314Z,3.88
2022-11-28T19:33:32.978Z,4.38
2022-11-28T19:36:06.387Z,3.90
2022-11-28T19:38:37.268Z,3.83
2022-11-28T19:41:17.326Z,3.90
2022-11-28T19:43:44.444Z,3.58
2022-11-28T19:46:12.000Z,4.05
2022-11-28T19:48:39.994Z,3.83
2022-11-28T19:51:07.373Z,3.58
2022-11-28T19:53:37.562Z,3.78
2022-11-28T19:56:25.275Z,4.13
2022-11-28T19:58:52.003Z,3.90
2022-11-28T20:01:21.233Z,4.38
2022-11-28T20:03:49.588Z,4.40
2022-11-28T20:06:24.789Z,4.40
2022-11-28T20:08:52.991Z,4.15
2022-11-28T20:11:22.676Z,4.22
2022-11-28T20:13:50.042Z,4.13
2022-11-28T20:16:18.013Z,3.80
2022-11-28T20:18:45.421Z,4.30
2022-11-28T20:21:14.920Z,4.45
2022-11-28T20:23:43.837Z,4.30
2022-11-28T20:26:11.477Z,4.65
2022-11-28T20:28:40.177Z,4.30
2022-11-28T20:31:07.358Z,4.30
2022-11-28T20:33:34.037Z,4.55
2022-11-28T20:36:12.512Z,4.88
2022-11-28T20:38:39.555Z,4.65
2022-11-28T20:41:09.137Z,4.43
2022-11-28T20:43:37.422Z,4.55
2022-11-28T20:46:08.537Z,4.40
2022-11-28T20:48:35.393Z,4.10
2022-11-28T20:51:01.914Z,4.50
2022-11-28T20:53:29.189Z,4.20
2022-11-28T20:56:03.484Z,4.40
2022-11-28T20:58:30.989Z,4.20
2022-11-28T21:00:57.723Z,4.18
2022-11-28T21:03:25.003Z,4.25
2022-11-28T21:05:56.421Z,4.25
2022-11-28T21:08:26.152Z,4.60
2022-11-28T21:10:52.668Z,4.45
2022-11-28T21:13:19.465Z,4.60
2022-11-28T21:15:46.106Z,4.78
2022-11-28T21:18:16.587Z,4.88
2022-11-28T21:20:45.520Z,4.43
2022-11-28T21:23:13.535Z,4.40
2022-11-28T21:25:41.736Z,4.38
2022-11-28T21:28:09.973Z,4.07
2022-11-28T21:30:46.966Z,4.00
2022-11-28T21:33:13.544Z,4.00
2022-11-28T21:35:40.270Z,4.32
2022-11-28T21:38:07.734Z,4.43
2022-11-28T21:40:34.370Z,3.88
2022-11-28T21:43:00.871Z,4.32
2022-11-28T21:45:27.518Z,4.55
2022-11-28T21:47:54.181Z,4.63
2022-11-28T21:50:20.676Z,4.30
2022-11-28T21:52:47.349Z,4.22
2022-11-28T21:55:13.939Z,4.40
2022-11-28T21:57:42.180Z,3.83
2022-11-28T22:00:25.603Z,4.18
2022-11-28T22:03:02.526Z,4.03
2022-11-28T22:05:31.723Z,3.90
2022-11-28T22:07:58.341Z,4.30
2022-11-28T22:10:24.949Z,4.20
2022-11-28T22:12:51.576Z,3.95
2022-11-28T22:15:18.148Z,3.80
2022-11-28T22:17:44.740Z,4.30
2022-11-28T22:20:11.864Z,3.63
2022-11-28T22:22:38.298Z,3.83
2022-11-28T22:25:05.302Z,4.20
2022-11-28T22:27:32.659Z,4.15
2022-11-28T22:29:59.188Z,3.92
2022-11-28T22:32:25.641Z,3.38
2022-11-28T22:34:52.079Z,3.75
2022-11-28T22:37:18.547Z,4.38
2022-11-28T22:39:45.005Z,3.70
2022-11-28T22:42:11.603Z,3.50
2022-11-28T22:44:38.077Z,3.60
2022-11-28T22:47:04.826Z,3.90
2022-11-28T22:49:31.313Z,3.92
2022-11-28T22:51:57.781Z,3.42
2022-11-28T22:54:24.238Z,3.80
2022-11-28T22:56:50.849Z,3.75
2022-11-28T22:59:17.351Z,3.88
2022-11-28T23:01:43.988Z,3.53
2022-11-28T23:04:10.626Z,3.42
2022-11-28T23:06:37.342Z,3.75
2022-11-28T23:09:06.547Z,3.90
2022-11-28T23:11:34.987Z,3.70
2022-11-28T23:14:02.547Z,3.20
2022-11-28T23:16:32.139Z,3.60
2022-11-28T23:19:01.264Z,3.65
2022-11-28T23:21:32.967Z,3.38
2022-11-28T23:23:59.447Z,3.50
2022-11-28T23:26:29.015Z,3.45
2022-11-28T23:28:55.747Z,3.70
2022-11-28T23:31:25.265Z,3.35
2022-11-28T23:33:52.956Z,3.47
2022-11-28T23:36:21.021Z,3.17
2022-11-28T23:38:50.426Z,3.75
2022-11-28T23:41:17.481Z,3.63
2022-11-28T23:43:44.102Z,3.58
2022-11-28T23:46:12.275Z,3.60
2022-11-28T23:48:38.960Z,3.65
2022-11-28T23:51:06.502Z,3.55
2022-11-28T23:53:33.805Z,3.70
2022-11-28T23:56:05.309Z,3.92
2022-11-28T23:58:32.108Z,3.20
